EZS98NZ LEMH-LSGG
Flight info
| Callsign | EZS98NZ |
|---|---|
| Flight time | N/A |
| Altitude | 28000 |
| Route | MEROS DCT LAPIT DCT CHELY DCT LUMAS DCT MAXIR DCT LUSOL DCT BODRU DCT OKTET DCT IRMAR DCT KINES |
| Aircraft | A320/M-SDE2E3FGHIJ1RWXYZ/LB1 |
Departure
| Time | 2026-05-04 21:22 |
|---|---|
| Airport | Menorca Airport (LEMH) |
Arrival
| Time | N/A |
|---|---|
| Airport | Geneva International Airport (LSGG) |
| Time | Latitude | Longitude | Altitude | Speed | Heading |
|---|---|---|---|---|---|
| 2026-05-04 20:58 | 39.86425 | 4.22391 | 286 ft | 0 kts | 99° |
| 2026-05-04 21:12 | 39.86426 | 4.22386 | 286 ft | 3 kts | 98° |
| 2026-05-04 21:12 | 39.86428 | 4.22351 | 287 ft | 4 kts | 86° |
| 2026-05-04 21:13 | 39.86423 | 4.22319 | 288 ft | 4 kts | 53° |
| 2026-05-04 21:13 | 39.86409 | 4.22304 | 288 ft | 1 kts | 9° |
| 2026-05-04 21:13 | 39.86405 | 4.22304 | 288 ft | 0 kts | 9° |
| 2026-05-04 21:16 | 39.86406 | 4.22304 | 288 ft | 1 kts | 9° |
| 2026-05-04 21:17 | 39.86482 | 4.22319 | 288 ft | 21 kts | 7° |
| 2026-05-04 21:17 | 39.86611 | 4.22347 | 289 ft | 18 kts | 9° |
| 2026-05-04 21:17 | 39.86736 | 4.22373 | 291 ft | 20 kts | 8° |
| 2026-05-04 21:17 | 39.86871 | 4.22400 | 294 ft | 18 kts | 356° |
| 2026-05-04 21:18 | 39.86927 | 4.22287 | 298 ft | 14 kts | 288° |
| 2026-05-04 21:18 | 39.86996 | 4.22254 | 302 ft | 12 kts | 8° |
| 2026-05-04 21:18 | 39.87123 | 4.22283 | 305 ft | 25 kts | 10° |
| 2026-05-04 21:18 | 39.87301 | 4.22318 | 310 ft | 22 kts | 9° |
| 2026-05-04 21:19 | 39.87380 | 4.22292 | 313 ft | 9 kts | 287° |
| 2026-05-04 21:19 | 39.87396 | 4.22183 | 311 ft | 15 kts | 268° |
| 2026-05-04 21:19 | 39.87381 | 4.22148 | 311 ft | 0 kts | 240° |
| 2026-05-04 21:21 | 39.87377 | 4.22138 | 311 ft | 7 kts | 242° |
| 2026-05-04 21:21 | 39.87330 | 4.22084 | 310 ft | 9 kts | 197° |
| 2026-05-04 21:21 | 39.87322 | 4.22082 | 310 ft | 0 kts | 192° |
| 2026-05-04 21:21 | 39.87257 | 4.22069 | 308 ft | 31 kts | 189° |
| 2026-05-04 21:22 | 39.86778 | 4.21970 | 303 ft | 104 kts | 188° |
| 2026-05-04 21:22 | 39.85874 | 4.21776 | 306 ft | 157 kts | 190° |
| 2026-05-04 21:22 | 39.84756 | 4.21548 | 866 ft | 163 kts | 191° |
| 2026-05-04 21:22 | 39.83645 | 4.21300 | 1607 ft | 162 kts | 191° |
| 2026-05-04 21:23 | 39.82428 | 4.21029 | 1863 ft | 189 kts | 192° |
| 2026-05-04 21:23 | 39.81053 | 4.20723 | 2126 ft | 213 kts | 192° |
| 2026-05-04 21:23 | 39.79496 | 4.20385 | 2457 ft | 239 kts | 192° |
| 2026-05-04 21:23 | 39.77817 | 4.20022 | 3066 ft | 252 kts | 192° |
| 2026-05-04 21:24 | 39.76043 | 4.20064 | 3899 ft | 266 kts | 167° |
| 2026-05-04 21:24 | 39.74465 | 4.21442 | 4756 ft | 283 kts | 133° |
| 2026-05-04 21:24 | 39.73676 | 4.23803 | 5549 ft | 300 kts | 99° |
| 2026-05-04 21:24 | 39.73931 | 4.26496 | 6349 ft | 309 kts | 70° |
| 2026-05-04 21:25 | 39.75012 | 4.28915 | 7066 ft | 314 kts | 46° |
| 2026-05-04 21:25 | 39.76716 | 4.30663 | 7784 ft | 313 kts | 21° |
| 2026-05-04 21:25 | 39.78786 | 4.31381 | 8559 ft | 307 kts | 358° |
| 2026-05-04 21:25 | 39.80935 | 4.31531 | 9354 ft | 310 kts | 356° |
| 2026-05-04 21:26 | 39.83110 | 4.31671 | 10109 ft | 316 kts | 357° |
| 2026-05-04 21:26 | 39.85353 | 4.31817 | 10548 ft | 334 kts | 357° |
| 2026-05-04 21:26 | 39.87749 | 4.31971 | 10856 ft | 353 kts | 358° |
| 2026-05-04 21:26 | 39.90231 | 4.32146 | 11489 ft | 361 kts | 358° |
| 2026-05-04 21:27 | 39.92747 | 4.32340 | 12230 ft | 363 kts | 358° |
| 2026-05-04 21:27 | 39.95278 | 4.32542 | 12951 ft | 367 kts | 359° |
| 2026-05-04 21:27 | 39.97837 | 4.32743 | 13641 ft | 369 kts | 358° |
| 2026-05-04 21:27 | 40.00419 | 4.32939 | 14309 ft | 373 kts | 358° |
| 2026-05-04 21:28 | 40.03016 | 4.33131 | 14973 ft | 376 kts | 358° |
| 2026-05-04 21:28 | 40.05639 | 4.33325 | 15613 ft | 379 kts | 358° |
| 2026-05-04 21:28 | 40.08280 | 4.33554 | 16244 ft | 383 kts | 1° |
| 2026-05-04 21:28 | 40.10933 | 4.33978 | 16854 ft | 386 kts | 3° |
| 2026-05-04 21:29 | 40.13608 | 4.34475 | 17447 ft | 389 kts | 4° |
| 2026-05-04 21:29 | 40.16298 | 4.35019 | 18014 ft | 393 kts | 4° |
| 2026-05-04 21:29 | 40.19005 | 4.35584 | 18583 ft | 395 kts | 4° |
| 2026-05-04 21:29 | 40.21732 | 4.36153 | 19106 ft | 399 kts | 4° |
| 2026-05-04 21:30 | 40.24490 | 4.36717 | 19593 ft | 403 kts | 4° |
| 2026-05-04 21:30 | 40.27279 | 4.37272 | 20067 ft | 408 kts | 3° |
| 2026-05-04 21:30 | 40.30096 | 4.37826 | 20531 ft | 412 kts | 3° |
| 2026-05-04 21:30 | 40.32946 | 4.38384 | 20991 ft | 416 kts | 3° |
| 2026-05-04 21:31 | 40.38714 | 4.39518 | 21877 ft | 423 kts | 3° |
| 2026-05-04 21:31 | 40.41639 | 4.40091 | 22299 ft | 427 kts | 3° |
| 2026-05-04 21:31 | 40.44584 | 4.40667 | 22709 ft | 430 kts | 3° |
| 2026-05-04 21:32 | 40.47555 | 4.41253 | 23128 ft | 433 kts | 3° |
| 2026-05-04 21:32 | 40.50551 | 4.41847 | 23522 ft | 437 kts | 3° |
| 2026-05-04 21:32 | 40.53564 | 4.42450 | 23903 ft | 440 kts | 3° |
| 2026-05-04 21:32 | 40.56599 | 4.43056 | 24278 ft | 444 kts | 3° |
| 2026-05-04 21:33 | 40.59663 | 4.43669 | 24668 ft | 446 kts | 3° |
| 2026-05-04 21:33 | 40.62735 | 4.44283 | 25041 ft | 449 kts | 3° |
| 2026-05-04 21:33 | 40.65837 | 4.44900 | 25398 ft | 451 kts | 3° |
| 2026-05-04 21:33 | 40.68953 | 4.45518 | 25752 ft | 454 kts | 3° |
| 2026-05-04 21:34 | 40.72085 | 4.46141 | 26095 ft | 457 kts | 3° |
| 2026-05-04 21:34 | 40.75239 | 4.46768 | 26437 ft | 460 kts | 3° |
| 2026-05-04 21:34 | 40.78409 | 4.47399 | 26780 ft | 462 kts | 3° |
| 2026-05-04 21:34 | 40.81594 | 4.48035 | 27110 ft | 464 kts | 3° |
| 2026-05-04 21:35 | 40.84795 | 4.48674 | 27439 ft | 467 kts | 3° |
| 2026-05-04 21:35 | 40.88014 | 4.49319 | 27761 ft | 469 kts | 3° |
| 2026-05-04 21:35 | 40.91252 | 4.49965 | 28078 ft | 471 kts | 3° |
| 2026-05-04 21:35 | 40.94499 | 4.50615 | 28392 ft | 473 kts | 3° |
| 2026-05-04 21:36 | 40.97762 | 4.51271 | 28707 ft | 475 kts | 3° |
| 2026-05-04 21:36 | 41.01043 | 4.51936 | 28993 ft | 478 kts | 3° |
| 2026-05-04 21:36 | 41.04334 | 4.52603 | 29292 ft | 480 kts | 3° |
| 2026-05-04 21:36 | 41.07638 | 4.53271 | 29573 ft | 482 kts | 3° |
| 2026-05-04 21:37 | 41.10964 | 4.53944 | 29830 ft | 484 kts | 3° |
| 2026-05-04 21:37 | 41.14310 | 4.54620 | 29541 ft | 498 kts | 3° |
| 2026-05-04 21:37 | 41.17692 | 4.55293 | 30300 ft | 485 kts | 3° |
| 2026-05-04 21:37 | 41.21040 | 4.55968 | 30545 ft | 488 kts | 3° |
| 2026-05-04 21:38 | 41.24405 | 4.56651 | 30786 ft | 490 kts | 3° |
| 2026-05-04 21:38 | 41.27779 | 4.57340 | 31034 ft | 491 kts | 3° |
| 2026-05-04 21:38 | 41.31155 | 4.58031 | 31381 ft | 490 kts | 3° |
| 2026-05-04 21:38 | 41.34523 | 4.58721 | 31729 ft | 489 kts | 3° |
| 2026-05-04 21:39 | 41.37885 | 4.59407 | 32069 ft | 488 kts | 3° |
| 2026-05-04 21:39 | 41.41239 | 4.60094 | 32418 ft | 487 kts | 3° |
| 2026-05-04 21:39 | 41.44582 | 4.60778 | 32766 ft | 486 kts | 3° |
| 2026-05-04 21:39 | 41.47920 | 4.61460 | 33095 ft | 485 kts | 3° |
| 2026-05-04 21:40 | 41.51254 | 4.62142 | 33398 ft | 484 kts | 3° |
| 2026-05-04 21:40 | 41.54579 | 4.62823 | 33700 ft | 484 kts | 3° |
| 2026-05-04 21:40 | 41.57905 | 4.63503 | 34014 ft | 483 kts | 3° |
| 2026-05-04 21:40 | 41.61219 | 4.64181 | 34317 ft | 482 kts | 3° |
| 2026-05-04 21:41 | 41.64533 | 4.64859 | 34603 ft | 481 kts | 3° |
| 2026-05-04 21:41 | 41.67840 | 4.65536 | 34887 ft | 480 kts | 3° |
| 2026-05-04 21:41 | 41.71128 | 4.66366 | 34971 ft | 481 kts | 10° |
| 2026-05-04 21:42 | 41.77298 | 4.69847 | 34981 ft | 485 kts | 28° |
| 2026-05-04 21:42 | 41.83100 | 4.74495 | 34981 ft | 486 kts | 27° |
| 2026-05-04 21:43 | 41.88899 | 4.79151 | 34980 ft | 486 kts | 27° |
| 2026-05-04 21:43 | 41.94696 | 4.83833 | 34968 ft | 486 kts | 28° |
| 2026-05-04 21:44 | 42.00520 | 4.88565 | 34968 ft | 486 kts | 28° |
| 2026-05-04 21:44 | 42.06273 | 4.93223 | 34978 ft | 485 kts | 28° |
| 2026-05-04 21:45 | 42.12103 | 4.97937 | 34982 ft | 486 kts | 28° |
| 2026-05-04 21:45 | 42.17893 | 5.02637 | 34982 ft | 486 kts | 28° |
| 2026-05-04 21:46 | 42.23670 | 5.07360 | 34972 ft | 485 kts | 28° |
| 2026-05-04 21:46 | 42.29444 | 5.12095 | 34966 ft | 485 kts | 28° |
| 2026-05-04 21:47 | 42.35214 | 5.16821 | 34961 ft | 485 kts | 28° |
| 2026-05-04 21:47 | 42.40999 | 5.21553 | 34951 ft | 485 kts | 28° |
| 2026-05-04 21:48 | 42.46731 | 5.26259 | 34956 ft | 485 kts | 28° |
| 2026-05-04 21:48 | 42.52500 | 5.31028 | 34965 ft | 486 kts | 28° |
| 2026-05-04 21:49 | 42.58310 | 5.35831 | 34973 ft | 486 kts | 28° |
| 2026-05-04 21:49 | 42.64045 | 5.40564 | 34977 ft | 486 kts | 28° |
| 2026-05-04 21:50 | 42.69812 | 5.45340 | 34981 ft | 486 kts | 28° |
| 2026-05-04 21:50 | 42.75571 | 5.50136 | 34985 ft | 485 kts | 29° |
| 2026-05-04 21:51 | 42.81356 | 5.54968 | 34985 ft | 484 kts | 29° |
| 2026-05-04 21:51 | 42.87100 | 5.59762 | 34989 ft | 484 kts | 29° |
| 2026-05-04 21:52 | 42.92801 | 5.64525 | 34999 ft | 484 kts | 29° |
| 2026-05-04 21:52 | 42.98533 | 5.69335 | 34994 ft | 483 kts | 29° |
| 2026-05-04 21:53 | 43.04291 | 5.74180 | 35003 ft | 482 kts | 29° |
| 2026-05-04 21:53 | 43.09961 | 5.78953 | 35006 ft | 481 kts | 29° |
| 2026-05-04 21:54 | 43.15651 | 5.83758 | 35009 ft | 481 kts | 29° |
| 2026-05-04 21:54 | 43.21377 | 5.88598 | 35013 ft | 480 kts | 29° |
| 2026-05-04 21:55 | 43.27013 | 5.93367 | 35019 ft | 479 kts | 29° |
| 2026-05-04 21:55 | 43.32672 | 5.98181 | 35023 ft | 478 kts | 30° |
| 2026-05-04 21:56 | 43.38467 | 6.02558 | 35020 ft | 472 kts | 17° |
| 2026-05-04 21:56 | 43.44767 | 6.04590 | 35019 ft | 461 kts | 359° |
| 2026-05-04 21:57 | 43.51150 | 6.05212 | 35012 ft | 460 kts | 359° |
| 2026-05-04 21:57 | 43.57540 | 6.05859 | 35015 ft | 460 kts | 359° |
| 2026-05-04 21:58 | 43.63914 | 6.06501 | 35016 ft | 459 kts | 360° |
| 2026-05-04 21:58 | 43.70290 | 6.07145 | 35015 ft | 459 kts | 360° |
| 2026-05-04 21:59 | 43.76637 | 6.08221 | 35010 ft | 464 kts | 11° |
| 2026-05-04 21:59 | 43.82647 | 6.11575 | 35011 ft | 468 kts | 24° |
| 2026-05-04 22:00 | 43.88490 | 6.15570 | 35000 ft | 468 kts | 23° |
| 2026-05-04 22:00 | 43.94343 | 6.19552 | 35006 ft | 469 kts | 23° |
| 2026-05-04 22:01 | 44.00196 | 6.23554 | 35010 ft | 469 kts | 24° |
| 2026-05-04 22:01 | 44.06046 | 6.27573 | 35016 ft | 469 kts | 24° |
| 2026-05-04 22:02 | 44.11895 | 6.31599 | 35020 ft | 469 kts | 24° |
| 2026-05-04 22:02 | 44.16760 | 6.34939 | 35022 ft | 469 kts | 24° |
| 2026-05-04 22:03 | 44.22609 | 6.38966 | 35029 ft | 469 kts | 24° |
| 2026-05-04 22:03 | 44.28449 | 6.43005 | 35037 ft | 469 kts | 24° |
| 2026-05-04 22:04 | 44.34299 | 6.47062 | 35044 ft | 469 kts | 24° |
| 2026-05-04 22:04 | 44.40138 | 6.51125 | 35054 ft | 468 kts | 24° |
| 2026-05-04 22:05 | 44.45963 | 6.55187 | 35058 ft | 468 kts | 24° |
| 2026-05-04 22:05 | 44.51797 | 6.59250 | 35058 ft | 468 kts | 24° |
| 2026-05-04 22:06 | 44.57627 | 6.63315 | 35060 ft | 468 kts | 24° |
| 2026-05-04 22:06 | 44.63450 | 6.67376 | 35068 ft | 468 kts | 24° |
| 2026-05-04 22:07 | 44.69275 | 6.71463 | 35071 ft | 468 kts | 24° |
| 2026-05-04 22:07 | 44.75089 | 6.75568 | 35074 ft | 467 kts | 23° |
| 2026-05-04 22:08 | 44.78083 | 6.77289 | 35081 ft | 463 kts | 14° |